createdAt,value
2023-03-13T00:00:56.547Z,51.91
2023-03-13T00:03:24.485Z,52.12
2023-03-13T00:05:56.294Z,52.37
2023-03-13T00:08:25.224Z,52.46
2023-03-13T00:10:52.855Z,52.31
2023-03-13T00:13:20.673Z,52.35
2023-03-13T00:15:48.327Z,52.95
2023-03-13T00:18:16.851Z,52.94
2023-03-13T00:20:47.784Z,52.63
2023-03-13T00:23:15.655Z,52.50
2023-03-13T00:25:43.151Z,53.27
2023-03-13T00:28:11.076Z,53.72
2023-03-13T00:30:38.710Z,53.42
2023-03-13T00:33:06.877Z,52.54
2023-03-13T00:35:34.495Z,52.43
2023-03-13T00:38:02.451Z,53.05
2023-03-13T00:40:30.525Z,53.71
2023-03-13T00:42:58.471Z,53.32
2023-03-13T00:45:27.140Z,53.35
2023-03-13T00:47:54.911Z,53.81
2023-03-13T00:50:22.469Z,53.63
2023-03-13T00:52:50.271Z,53.30
2023-03-13T00:55:17.788Z,53.39
2023-03-13T00:57:45.758Z,53.30
2023-03-13T01:00:13.508Z,53.76
2023-03-13T01:02:42.353Z,53.76
2023-03-13T01:05:10.784Z,54.08
2023-03-13T01:07:38.696Z,53.71
2023-03-13T01:10:06.775Z,53.21
2023-03-13T01:12:34.998Z,53.85
2023-03-13T01:15:05.125Z,54.00
2023-03-13T01:17:33.093Z,53.82
2023-03-13T01:20:00.769Z,53.93
2023-03-13T01:22:28.698Z,53.53
2023-03-13T01:24:56.348Z,54.28
2023-03-13T01:27:24.348Z,53.67
2023-03-13T01:29:52.221Z,53.98
2023-03-13T01:32:20.453Z,54.06
2023-03-13T01:34:48.220Z,53.58
2023-03-13T01:37:16.429Z,52.52
2023-03-13T01:39:44.062Z,52.64
2023-03-13T01:42:12.029Z,52.90
2023-03-13T01:44:53.560Z,52.53
2023-03-13T01:47:22.738Z,52.26
2023-03-13T01:50:19.719Z,52.16
2023-03-13T01:52:56.920Z,52.46
2023-03-13T01:55:29.401Z,52.12
2023-03-13T01:57:57.823Z,52.39
2023-03-13T02:00:31.205Z,51.91
2023-03-13T02:03:01.681Z,52.67
2023-03-13T02:05:31.544Z,52.80
2023-03-13T02:08:06.053Z,52.95
2023-03-13T02:10:38.331Z,52.87
2023-03-13T02:13:06.312Z,51.98
2023-03-13T02:15:34.619Z,52.27
2023-03-13T02:18:02.906Z,52.61
2023-03-13T02:20:30.801Z,51.77
2023-03-13T02:22:59.048Z,52.02
2023-03-13T02:25:47.168Z,52.21
2023-03-13T02:28:23.570Z,52.70
2023-03-13T02:30:54.089Z,52.83
2023-03-13T02:33:26.585Z,52.83
2023-03-13T02:35:54.509Z,53.41
2023-03-13T02:38:25.502Z,53.86
2023-03-13T02:40:54.593Z,54.19
2023-03-13T02:43:26.537Z,53.72
2023-03-13T02:46:05.614Z,53.69
2023-03-13T02:48:43.298Z,53.52
2023-03-13T02:51:31.178Z,53.53
2023-03-13T02:54:06.596Z,54.09
2023-03-13T02:56:36.121Z,54.25
2023-03-13T02:59:05.637Z,54.18
2023-03-13T03:01:33.398Z,53.86
2023-03-13T03:04:01.456Z,54.34
2023-03-13T03:06:29.152Z,55.25
2023-03-13T03:08:57.395Z,55.08
2023-03-13T03:11:27.688Z,54.93
2023-03-13T03:14:02.016Z,55.19
2023-03-13T03:16:33.368Z,55.66
2023-03-13T03:19:01.449Z,55.71
2023-03-13T03:21:29.075Z,56.25
2023-03-13T03:23:57.105Z,55.75
2023-03-13T03:26:26.353Z,56.18
2023-03-13T03:28:54.375Z,56.51
2023-03-13T03:31:22.278Z,56.81
2023-03-13T03:33:50.406Z,56.52
2023-03-13T03:36:20.738Z,56.81
2023-03-13T03:38:49.942Z,56.18
2023-03-13T03:41:20.067Z,56.06
2023-03-13T03:43:49.431Z,56.32
2023-03-13T03:46:20.793Z,56.20
2023-03-13T03:48:48.830Z,57.06
2023-03-13T03:51:16.609Z,56.99
2023-03-13T03:53:47.892Z,56.94
2023-03-13T03:56:15.725Z,57.57
2023-03-13T03:58:49.324Z,57.59
2023-03-13T04:01:22.646Z,57.55
2023-03-13T04:03:50.800Z,58.45
2023-03-13T04:06:19.198Z,57.70
2023-03-13T04:08:48.977Z,57.31
2023-03-13T04:11:20.361Z,57.72
2023-03-13T04:13:51.927Z,57.91
2023-03-13T04:16:19.961Z,57.14
2023-03-13T04:18:49.588Z,57.41
2023-03-13T04:21:18.822Z,57.30
2023-03-13T04:23:52.017Z,56.86
2023-03-13T04:26:20.808Z,56.62
2023-03-13T04:28:51.449Z,57.29
2023-03-13T04:31:27.038Z,56.74
2023-03-13T04:34:18.311Z,56.76
2023-03-13T04:37:11.087Z,56.68
2023-03-13T04:39:41.980Z,56.89
2023-03-13T04:42:38.767Z,56.79
2023-03-13T04:45:26.093Z,57.08
2023-03-13T04:48:08.305Z,56.67
2023-03-13T04:50:48.993Z,57.12
2023-03-13T04:53:31.095Z,56.72
2023-03-13T04:56:41.547Z,57.00
2023-03-13T04:59:28.802Z,56.86
2023-03-13T05:02:06.593Z,56.83
2023-03-13T05:04:52.043Z,56.99
2023-03-13T05:07:58.969Z,56.35
2023-03-13T05:10:56.184Z,55.69
2023-03-13T05:13:47.503Z,55.45
2023-03-13T05:16:26.189Z,55.03
2023-03-13T05:19:15.393Z,55.22
2023-03-13T05:22:00.566Z,55.07
2023-03-13T05:24:46.699Z,55.32
2023-03-13T05:27:29.966Z,55.62
2023-03-13T05:30:19.605Z,55.29
2023-03-13T05:33:07.535Z,55.99
2023-03-13T05:36:01.628Z,55.57
2023-03-13T05:38:34.989Z,55.27
2023-03-13T05:41:13.217Z,55.47
2023-03-13T05:44:04.062Z,55.89
2023-03-13T05:46:55.402Z,55.33
2023-03-13T05:49:41.391Z,55.50
2023-03-13T05:52:18.923Z,55.96
2023-03-13T05:54:59.932Z,57.03
2023-03-13T05:57:47.082Z,58.99
2023-03-13T06:00:31.790Z,59.91
2023-03-13T06:03:19.852Z,60.27
2023-03-13T06:05:50.022Z,59.85
2023-03-13T06:08:33.297Z,59.95
2023-03-13T06:11:02.196Z,60.64
2023-03-13T06:13:30.606Z,60.47
2023-03-13T06:16:03.232Z,60.06
2023-03-13T06:18:48.726Z,59.21
2023-03-13T06:21:16.339Z,58.91
2023-03-13T06:23:44.384Z,58.43
2023-03-13T06:26:12.007Z,59.11
2023-03-13T06:28:39.975Z,58.56
2023-03-13T06:31:08.156Z,57.24
2023-03-13T06:33:36.197Z,56.99
2023-03-13T06:36:04.287Z,57.18
2023-03-13T06:38:32.372Z,56.91
2023-03-13T06:41:00.196Z,56.34
2023-03-13T06:43:28.779Z,56.36
2023-03-13T06:45:56.577Z,56.48
2023-03-13T06:48:25.005Z,56.92
2023-03-13T06:50:52.885Z,57.41
2023-03-13T06:53:20.975Z,57.06
2023-03-13T06:55:49.463Z,56.95
2023-03-13T06:58:31.139Z,56.06
2023-03-13T07:01:01.191Z,56.15
2023-03-13T07:03:29.330Z,55.66
2023-03-13T07:05:57.437Z,55.86
2023-03-13T07:08:25.974Z,55.43
2023-03-13T07:10:55.069Z,55.56
2023-03-13T07:13:23.086Z,56.30
2023-03-13T07:15:51.772Z,55.39
2023-03-13T07:18:20.534Z,55.08
2023-03-13T07:20:55.708Z,55.70
2023-03-13T07:23:24.846Z,55.76
2023-03-13T07:25:53.712Z,55.58
2023-03-13T07:28:22.108Z,55.36
2023-03-13T07:30:50.023Z,54.92
2023-03-13T07:33:18.203Z,55.07
2023-03-13T07:35:50.495Z,54.56
2023-03-13T07:38:19.354Z,53.63
2023-03-13T07:40:50.732Z,54.41
2023-03-13T07:43:19.132Z,54.59
2023-03-13T07:46:06.287Z,54.21
2023-03-13T07:48:38.462Z,53.66
2023-03-13T07:51:07.845Z,53.29
2023-03-13T07:53:36.642Z,54.13
2023-03-13T07:56:06.161Z,54.25
2023-03-13T07:58:35.598Z,53.30
2023-03-13T08:01:19.739Z,53.44
2023-03-13T08:03:51.150Z,52.57
2023-03-13T08:06:20.229Z,51.03
2023-03-13T08:08:48.158Z,50.52
2023-03-13T08:11:19.709Z,51.07
2023-03-13T08:13:47.826Z,50.38
2023-03-13T08:16:17.306Z,49.77
2023-03-13T08:18:46.360Z,48.84
2023-03-13T08:21:16.121Z,48.48
2023-03-13T08:23:44.077Z,48.55
2023-03-13T08:26:19.933Z,48.68
2023-03-13T08:28:52.009Z,47.86
2023-03-13T08:31:21.517Z,47.89
2023-03-13T08:33:50.052Z,47.81
2023-03-13T08:36:19.192Z,47.97
2023-03-13T08:38:48.446Z,47.41
2023-03-13T08:41:17.876Z,47.08
2023-03-13T08:43:46.103Z,47.87
2023-03-13T08:46:14.359Z,48.07
2023-03-13T08:48:42.421Z,48.80
2023-03-13T08:51:14.411Z,48.11
2023-03-13T08:53:43.222Z,48.06
2023-03-13T08:56:12.347Z,48.86
2023-03-13T08:58:40.803Z,47.07
2023-03-13T09:01:13.116Z,46.40
2023-03-13T09:03:41.882Z,45.92
2023-03-13T09:06:10.394Z,45.89
2023-03-13T09:08:38.921Z,45.74
2023-03-13T09:11:14.033Z,45.97
2023-03-13T09:13:46.364Z,45.45
2023-03-13T09:16:15.823Z,44.00
2023-03-13T09:18:44.003Z,44.39
2023-03-13T09:21:16.836Z,44.65
2023-03-13T09:23:44.880Z,43.43
2023-03-13T09:26:12.972Z,43.39
2023-03-13T09:28:42.472Z,42.76
2023-03-13T09:31:21.120Z,41.65
2023-03-13T09:33:49.841Z,41.37
2023-03-13T09:36:21.548Z,41.35
2023-03-13T09:38:54.701Z,41.63
2023-03-13T09:41:24.497Z,41.40
2023-03-13T09:43:52.775Z,39.07
2023-03-13T09:46:35.611Z,39.27
2023-03-13T09:49:06.211Z,38.78
2023-03-13T09:51:36.770Z,38.86
2023-03-13T09:54:13.403Z,38.86
2023-03-13T09:56:45.810Z,38.18
2023-03-13T09:59:32.329Z,36.84
2023-03-13T10:02:01.275Z,39.13
2023-03-13T10:04:33.005Z,39.27
2023-03-13T10:07:00.838Z,39.60
2023-03-13T10:09:31.111Z,39.36
2023-03-13T10:12:00.458Z,38.68
2023-03-13T10:14:37.511Z,39.13
2023-03-13T10:17:28.427Z,39.38
2023-03-13T10:19:59.087Z,38.96
2023-03-13T10:22:30.214Z,38.24
2023-03-13T10:25:05.120Z,39.17
2023-03-13T10:27:42.707Z,39.12
2023-03-13T10:30:19.873Z,39.54
2023-03-13T10:32:47.463Z,39.69
2023-03-13T10:35:22.200Z,39.40
2023-03-13T10:37:49.778Z,40.28
2023-03-13T10:40:25.409Z,40.07
2023-03-13T10:42:54.071Z,39.44
2023-03-13T10:45:25.080Z,40.57
2023-03-13T10:47:57.345Z,40.69
2023-03-13T10:50:27.155Z,39.33
2023-03-13T10:52:55.304Z,38.55
2023-03-13T10:55:24.269Z,39.03
2023-03-13T10:58:02.729Z,38.60
2023-03-13T11:00:31.087Z,38.42
2023-03-13T11:02:58.805Z,38.00
2023-03-13T11:05:31.186Z,37.84
2023-03-13T11:07:58.863Z,37.22
2023-03-13T11:10:37.221Z,36.77
2023-03-13T11:13:04.765Z,36.76
2023-03-13T11:15:51.675Z,37.45
2023-03-13T11:18:31.749Z,37.58
2023-03-13T11:21:17.389Z,37.36
2023-03-13T11:23:53.486Z,36.65
2023-03-13T11:26:21.572Z,35.71
2023-03-13T11:28:58.140Z,34.75
2023-03-13T11:31:31.961Z,34.62
2023-03-13T11:34:06.328Z,35.17
2023-03-13T11:36:35.962Z,35.24
2023-03-13T11:39:18.734Z,34.14
2023-03-13T11:42:00.203Z,33.39
2023-03-13T11:44:31.135Z,34.53
2023-03-13T11:47:05.643Z,34.14
2023-03-13T11:49:40.829Z,33.58
2023-03-13T11:52:21.128Z,34.11
2023-03-13T11:54:54.553Z,32.87
2023-03-13T11:57:55.290Z,31.87
2023-03-13T12:00:31.610Z,31.77
2023-03-13T12:03:06.100Z,32.96
2023-03-13T12:05:52.067Z,33.24
2023-03-13T12:08:24.307Z,33.18
2023-03-13T12:11:06.467Z,31.81
2023-03-13T12:13:40.812Z,31.94
2023-03-13T12:16:21.473Z,31.92
2023-03-13T12:18:49.682Z,30.17
2023-03-13T12:21:23.296Z,31.30
2023-03-13T12:24:00.123Z,31.15
2023-03-13T12:26:48.011Z,31.21
2023-03-13T12:29:31.145Z,30.90
2023-03-13T12:32:04.922Z,31.38
2023-03-13T12:34:51.667Z,32.17
2023-03-13T12:37:22.329Z,31.42
2023-03-13T12:39:55.525Z,31.88
2023-03-13T12:42:41.700Z,31.86
2023-03-13T12:45:15.031Z,32.13
2023-03-13T12:47:54.640Z,33.70
2023-03-13T12:51:01.447Z,32.60
2023-03-13T12:53:44.331Z,31.82
2023-03-13T12:56:12.208Z,33.03
2023-03-13T12:58:39.838Z,31.94
2023-03-13T13:01:11.588Z,32.30
2023-03-13T13:03:43.391Z,31.32
2023-03-13T13:06:11.328Z,30.58
2023-03-13T13:08:40.864Z,30.63
2023-03-13T13:11:27.344Z,30.78
2023-03-13T13:13:54.974Z,31.31
2023-03-13T13:16:23.821Z,31.81
2023-03-13T13:18:52.176Z,32.57
2023-03-13T13:21:22.210Z,33.17
2023-03-13T13:23:54.129Z,31.42
2023-03-13T13:26:26.782Z,31.87
2023-03-13T13:28:54.817Z,32.83
2023-03-13T13:31:41.917Z,31.48
2023-03-13T13:34:34.654Z,30.09
2023-03-13T13:37:20.799Z,31.13
2023-03-13T13:39:52.893Z,30.59
2023-03-13T13:42:30.856Z,30.59
2023-03-13T13:44:58.562Z,29.68
2023-03-13T13:47:28.668Z,30.08
2023-03-13T13:49:57.701Z,29.31
2023-03-13T13:52:39.691Z,30.48
2023-03-13T13:55:22.432Z,29.57
2023-03-13T13:57:52.636Z,29.38
2023-03-13T14:00:25.396Z,28.39
2023-03-13T14:02:54.656Z,27.34
2023-03-13T14:05:27.025Z,27.52
2023-03-13T14:08:14.497Z,26.69
2023-03-13T14:10:43.442Z,28.41
2023-03-13T14:13:21.839Z,29.20
2023-03-13T14:15:53.085Z,28.89
2023-03-13T14:18:31.163Z,28.56
2023-03-13T14:21:02.107Z,29.04
2023-03-13T14:23:35.506Z,27.95
2023-03-13T14:26:16.448Z,27.87
2023-03-13T14:28:46.711Z,28.35
2023-03-13T14:31:24.992Z,27.47
2023-03-13T14:33:53.330Z,28.90
2023-03-13T14:36:20.989Z,29.32
2023-03-13T14:38:53.630Z,30.12
2023-03-13T14:41:27.626Z,28.32
2023-03-13T14:43:55.982Z,28.31
2023-03-13T14:46:26.533Z,28.10
2023-03-13T14:48:55.949Z,26.98
2023-03-13T14:51:28.072Z,26.76
2023-03-13T14:54:00.862Z,28.44
2023-03-13T14:56:38.937Z,26.47
2023-03-13T14:59:17.770Z,23.02
2023-03-13T15:01:46.356Z,21.38
2023-03-13T15:04:14.525Z,21.33
2023-03-13T15:06:42.332Z,20.14
2023-03-13T15:09:10.458Z,19.28
2023-03-13T15:11:41.329Z,20.09
2023-03-13T15:14:27.989Z,21.03
2023-03-13T15:16:55.623Z,22.09
2023-03-13T15:19:23.930Z,25.36
2023-03-13T15:21:52.188Z,26.58
2023-03-13T15:24:20.200Z,24.93
2023-03-13T15:26:49.165Z,26.13
2023-03-13T15:29:18.487Z,27.89
2023-03-13T15:31:46.362Z,29.32
2023-03-13T15:34:15.147Z,30.53
2023-03-13T15:36:42.868Z,30.27
2023-03-13T15:39:20.900Z,31.51
2023-03-13T15:41:48.545Z,31.94
2023-03-13T15:44:16.504Z,32.10
2023-03-13T15:46:44.132Z,31.31
2023-03-13T15:49:13.257Z,32.23
2023-03-13T15:51:40.875Z,31.47
2023-03-13T15:54:08.759Z,31.95
2023-03-13T15:56:38.256Z,31.42
2023-03-13T15:59:10.641Z,31.86
2023-03-13T16:01:38.393Z,32.31
2023-03-13T16:04:06.893Z,32.71
2023-03-13T16:06:34.698Z,33.28
2023-03-13T16:09:06.033Z,33.49
2023-03-13T16:11:33.669Z,33.99
2023-03-13T16:14:01.704Z,33.80
2023-03-13T16:16:30.284Z,33.78
2023-03-13T16:18:59.103Z,35.05
2023-03-13T16:21:28.297Z,34.48
2023-03-13T16:23:56.604Z,35.28
2023-03-13T16:26:25.934Z,36.29
2023-03-13T16:28:55.565Z,36.73
2023-03-13T16:31:27.916Z,37.33
2023-03-13T16:33:56.484Z,37.76
2023-03-13T16:36:25.844Z,37.53
2023-03-13T16:38:53.874Z,37.86
2023-03-13T16:41:23.504Z,38.02
2023-03-13T16:43:51.645Z,38.02
2023-03-13T16:46:23.479Z,38.03
2023-03-13T16:48:51.710Z,38.07
2023-03-13T16:51:21.015Z,38.96
2023-03-13T16:53:50.128Z,38.75
2023-03-13T16:56:44.068Z,39.32
2023-03-13T16:59:13.582Z,38.84
2023-03-13T17:01:59.735Z,38.77
2023-03-13T17:04:27.704Z,39.01
2023-03-13T17:06:55.653Z,39.13
2023-03-13T17:09:23.571Z,39.01
2023-03-13T17:11:51.143Z,38.98
2023-03-13T17:14:19.061Z,38.69
2023-03-13T17:16:47.329Z,38.49
2023-03-13T17:19:15.473Z,38.53
2023-03-13T17:21:43.200Z,39.16
2023-03-13T17:24:11.194Z,38.55
2023-03-13T17:26:40.533Z,39.41
2023-03-13T17:29:13.070Z,39.00
2023-03-13T17:31:41.267Z,39.37
2023-03-13T17:34:09.452Z,39.72
2023-03-13T17:36:37.297Z,39.40
2023-03-13T17:39:06.726Z,39.48
2023-03-13T17:41:35.065Z,39.51
2023-03-13T17:44:06.040Z,39.76
2023-03-13T17:46:41.428Z,39.95
2023-03-13T17:49:11.235Z,40.30
2023-03-13T17:51:41.656Z,39.33
2023-03-13T17:54:10.246Z,39.84
2023-03-13T17:56:40.533Z,39.75
2023-03-13T17:59:18.631Z,39.79
2023-03-13T18:01:46.517Z,39.88
2023-03-13T18:04:14.783Z,40.04
2023-03-13T18:06:44.001Z,39.88
2023-03-13T18:09:17.160Z,39.95
2023-03-13T18:11:44.966Z,40.20
2023-03-13T18:14:13.312Z,40.40
2023-03-13T18:16:47.849Z,40.83
2023-03-13T18:19:18.001Z,40.75
2023-03-13T18:21:46.528Z,40.74
2023-03-13T18:24:15.681Z,40.76
2023-03-13T18:26:44.161Z,40.67
2023-03-13T18:29:16.701Z,41.03
2023-03-13T18:31:44.493Z,40.94
2023-03-13T18:34:12.541Z,41.34
2023-03-13T18:36:40.431Z,40.82
2023-03-13T18:39:08.504Z,41.22
2023-03-13T18:41:36.261Z,40.97
2023-03-13T18:44:04.277Z,40.87
2023-03-13T18:46:34.440Z,41.49
2023-03-13T18:49:02.881Z,41.62
2023-03-13T18:51:31.061Z,42.06
2023-03-13T18:53:59.022Z,41.76
2023-03-13T18:56:28.852Z,42.90
2023-03-13T18:58:57.570Z,43.57
2023-03-13T19:01:26.705Z,44.24
2023-03-13T19:03:54.842Z,43.74
2023-03-13T19:06:25.269Z,44.15
2023-03-13T19:08:54.919Z,44.73
2023-03-13T19:11:30.193Z,45.05
2023-03-13T19:13:58.337Z,45.46
2023-03-13T19:16:29.740Z,45.27
2023-03-13T19:18:58.468Z,45.99
2023-03-13T19:21:27.273Z,45.48
2023-03-13T19:23:55.816Z,45.55
2023-03-13T19:26:43.479Z,46.00
2023-03-13T19:29:16.215Z,46.12
2023-03-13T19:31:43.999Z,46.58
2023-03-13T19:34:12.492Z,46.09
2023-03-13T19:36:42.013Z,46.72
2023-03-13T19:39:17.115Z,46.13
2023-03-13T19:41:45.155Z,46.78
2023-03-13T19:44:13.203Z,46.44
2023-03-13T19:46:43.638Z,46.86
2023-03-13T19:49:13.603Z,46.46
2023-03-13T19:51:41.234Z,46.63
2023-03-13T19:54:10.954Z,46.76
2023-03-13T19:56:39.711Z,46.76
2023-03-13T19:59:13.605Z,46.78
2023-03-13T20:01:41.488Z,47.40
2023-03-13T20:04:10.291Z,47.16
2023-03-13T20:06:38.734Z,47.47
2023-03-13T20:09:09.283Z,47.46
2023-03-13T20:11:37.613Z,47.65
2023-03-13T20:14:05.802Z,47.44
2023-03-13T20:16:35.262Z,48.12
2023-03-13T20:19:03.591Z,48.30
2023-03-13T20:21:33.128Z,47.89
2023-03-13T20:24:01.324Z,47.88
2023-03-13T20:26:30.311Z,48.12
2023-03-13T20:28:58.476Z,47.95
2023-03-13T20:31:28.548Z,47.92
2023-03-13T20:33:57.742Z,48.50
2023-03-13T20:36:25.742Z,48.03
2023-03-13T20:38:53.862Z,48.07
2023-03-13T20:41:25.338Z,47.64
2023-03-13T20:43:53.605Z,47.97
2023-03-13T20:46:21.762Z,48.11
2023-03-13T20:48:50.399Z,47.80
2023-03-13T20:51:18.394Z,47.80
2023-03-13T20:53:52.615Z,47.73
2023-03-13T20:56:21.397Z,48.02
2023-03-13T20:58:49.629Z,48.19
2023-03-13T21:01:19.216Z,47.85
2023-03-13T21:03:47.760Z,47.84
2023-03-13T21:06:16.596Z,48.30
2023-03-13T21:08:47.246Z,48.29
2023-03-13T21:11:24.126Z,48.29
2023-03-13T21:13:52.507Z,48.58
2023-03-13T21:16:20.715Z,48.94
2023-03-13T21:18:49.930Z,48.73
2023-03-13T21:21:19.169Z,48.69
2023-03-13T21:23:47.796Z,48.85
2023-03-13T21:26:15.988Z,49.11
2023-03-13T21:28:44.256Z,48.90
2023-03-13T21:31:13.625Z,48.82
2023-03-13T21:33:43.392Z,49.09
2023-03-13T21:36:12.481Z,49.17
2023-03-13T21:38:40.546Z,48.79
2023-03-13T21:41:12.916Z,49.46
2023-03-13T21:43:41.955Z,49.64
2023-03-13T21:46:10.825Z,49.67
2023-03-13T21:48:39.464Z,49.94
2023-03-13T21:51:07.535Z,50.45
2023-03-13T21:53:36.852Z,50.08
2023-03-13T21:56:04.687Z,51.02
2023-03-13T21:58:32.875Z,51.22
2023-03-13T22:01:00.908Z,51.68
2023-03-13T22:03:31.949Z,52.21
2023-03-13T22:05:59.757Z,52.33
2023-03-13T22:08:27.741Z,52.40
2023-03-13T22:10:55.493Z,52.56
2023-03-13T22:13:23.433Z,53.00
2023-03-13T22:15:53.087Z,53.47
2023-03-13T22:18:21.214Z,54.15
2023-03-13T22:20:48.907Z,54.00
2023-03-13T22:23:17.433Z,54.49
2023-03-13T22:25:45.964Z,55.32
2023-03-13T22:28:14.074Z,55.01
2023-03-13T22:30:44.101Z,55.47
2023-03-13T22:33:12.169Z,55.15
2023-03-13T22:35:40.837Z,55.31
2023-03-13T22:38:08.958Z,55.79
2023-03-13T22:40:36.776Z,56.09
2023-03-13T22:43:04.794Z,55.92
2023-03-13T22:45:34.189Z,56.43
2023-03-13T22:48:06.812Z,56.52
2023-03-13T22:50:34.722Z,56.66
2023-03-13T22:53:03.189Z,56.75
2023-03-13T22:55:32.088Z,56.73
2023-03-13T22:58:00.629Z,57.43
2023-03-13T23:00:28.257Z,57.47
2023-03-13T23:02:56.678Z,57.21
2023-03-13T23:05:24.370Z,57.86
2023-03-13T23:07:52.345Z,58.26
2023-03-13T23:10:19.994Z,57.65
2023-03-13T23:12:48.004Z,57.79
2023-03-13T23:15:15.647Z,57.96
2023-03-13T23:17:43.696Z,58.54
2023-03-13T23:20:14.368Z,58.28
2023-03-13T23:22:43.361Z,58.63
2023-03-13T23:25:11.648Z,58.90
2023-03-13T23:27:39.695Z,59.15
2023-03-13T23:30:09.098Z,59.49
2023-03-13T23:32:37.882Z,59.28
2023-03-13T23:35:06.684Z,59.41
2023-03-13T23:37:34.697Z,58.96
2023-03-13T23:40:02.875Z,59.20
2023-03-13T23:42:31.174Z,59.97
2023-03-13T23:44:58.816Z,59.78
2023-03-13T23:47:28.546Z,60.09
2023-03-13T23:49:56.314Z,60.22
2023-03-13T23:52:24.306Z,60.81
2023-03-13T23:54:52.770Z,60.34
2023-03-13T23:57:20.996Z,60.72
2023-03-13T23:59:49.351Z,60.74
